Time;durP1;ratioP1;P1;durP2;ratioP2;P2;SDS_P1;SDS_P2;PMS_P1;PMS_P2;Temp;Humidity;BMP_temperature;BMP_pressure;BME280_temperature;BME280_humidity;BME280_pressure;Samples;Min_cycle;Max_cycle;Signal;HPM_P1;HPM_P2
2021/07/28 00:00:46;;;;;;;13.35;3.90;;;;;;;;;;4988668;28;20207;-55
2021/07/28 00:03:11;;;;;;;10.65;4.00;;;;;;;;;;4987103;28;20192;-55
2021/07/28 00:05:36;;;;;;;5.38;3.42;;;;;;;;;;4987679;28;20203;-55
2021/07/28 00:08:01;;;;;;;5.35;3.78;;;;;;;;;;4985208;28;20180;-55
2021/07/28 00:10:26;;;;;;;5.90;3.73;;;;;;;;;;4992280;28;20208;-55
2021/07/28 00:12:52;;;;;;;4.40;3.20;;;;;;;;;;4969115;28;20450;-56
2021/07/28 00:15:17;;;;;;;12.13;4.20;;;;;;;;;;4990400;28;20214;-55
2021/07/28 00:17:53;;;;;;;10.05;4.15;;;;;;;;;;4992550;28;20707;-55
2021/07/28 00:25:33;;;;;;;11.38;3.88;;;;;;;;;;4984253;28;20738;-55
2021/07/28 00:27:58;;;;;;;8.70;4.13;;;;;;;;;;4979851;28;20941;-55
2021/07/28 00:30:23;;;;;;;8.97;3.67;;;;;;;;;;4980858;28;20212;-55
2021/07/28 00:32:48;;;;;;;9.18;3.72;;;;;;;;;;4993377;28;20180;-55
2021/07/28 00:35:14;;;;;;;11.82;3.88;;;;;;;;;;4988031;28;20183;-55
2021/07/28 00:37:40;;;;;;;5.18;3.13;;;;;;;;;;4995323;28;20175;-55
2021/07/28 00:40:06;;;;;;;8.77;3.87;;;;;;;;;;4994420;28;20219;-55
2021/07/28 00:42:31;;;;;;;7.00;3.53;;;;;;;;;;4998690;28;20167;-55
2021/07/28 00:44:56;;;;;;;5.15;3.90;;;;;;;;;;4992077;28;20200;-55
2021/07/28 00:47:22;;;;;;;9.80;3.93;;;;;;;;;;4993203;28;20259;-55
2021/07/28 00:49:47;;;;;;;6.70;3.67;;;;;;;;;;4989481;28;20442;-55
2021/07/28 00:52:12;;;;;;;7.32;3.67;;;;;;;;;;4991325;28;20204;-55
2021/07/28 00:54:39;;;;;;;6.03;3.53;;;;;;;;;;4992671;28;20274;-55
2021/07/28 00:57:05;;;;;;;6.72;4.72;;;;;;;;;;4991560;28;20190;-55
2021/07/28 00:59:30;;;;;;;7.22;3.42;;;;;;;;;;4976296;28;20207;-55
2021/07/28 01:01:56;;;;;;;11.73;4.50;;;;;;;;;;4995371;28;20208;-56
2021/07/28 01:04:21;;;;;;;6.50;3.90;;;;;;;;;;4990587;28;20207;-55
2021/07/28 01:06:47;;;;;;;9.60;3.70;;;;;;;;;;4992619;28;20172;-55
2021/07/28 01:09:12;;;;;;;5.50;3.33;;;;;;;;;;4994261;28;20198;-55
2021/07/28 01:11:37;;;;;;;8.50;3.27;;;;;;;;;;4998868;28;20195;-54
2021/07/28 01:14:05;;;;;;;5.57;3.67;;;;;;;;;;4993849;28;20544;-55
2021/07/28 01:16:31;;;;;;;7.67;3.10;;;;;;;;;;4991216;28;20812;-55
2021/07/28 01:18:56;;;;;;;7.17;3.70;;;;;;;;;;4976915;28;20179;-55
2021/07/28 01:21:21;;;;;;;6.27;3.30;;;;;;;;;;4975615;28;20212;-55
2021/07/28 01:23:49;;;;;;;6.60;3.90;;;;;;;;;;4981366;28;20184;-54
2021/07/28 01:26:14;;;;;;;13.37;4.23;;;;;;;;;;5017854;23;20230;-56
2021/07/28 01:28:39;;;;;;;5.50;4.05;;;;;;;;;;5015824;28;20268;-57
2021/07/28 01:31:06;;;;;;;6.97;4.27;;;;;;;;;;5012257;28;20191;-57
2021/07/28 01:33:33;;;;;;;7.00;4.30;;;;;;;;;;5027780;28;20663;-57
2021/07/28 01:36:03;;;;;;;8.75;3.70;;;;;;;;;;5035969;28;20213;-56
2021/07/28 01:38:28;;;;;;;10.95;4.30;;;;;;;;;;5058073;28;20189;-57
2021/07/28 01:41:04;;;;;;;4.63;3.77;;;;;;;;;;5043724;28;20735;-56
2021/07/28 01:43:29;;;;;;;6.90;3.57;;;;;;;;;;5032030;28;20177;-56
2021/07/28 01:45:55;;;;;;;6.18;3.38;;;;;;;;;;5043512;28;20194;-55
2021/07/28 01:48:20;;;;;;;9.43;4.07;;;;;;;;;;5047427;28;20482;-56
2021/07/28 01:50:46;;;;;;;6.75;3.60;;;;;;;;;;5045786;28;20174;-57
2021/07/28 01:53:12;;;;;;;7.53;3.87;;;;;;;;;;5016371;28;20241;-56
2021/07/28 01:55:37;;;;;;;9.63;4.27;;;;;;;;;;5047770;28;20580;-56
2021/07/28 01:58:02;;;;;;;11.47;3.97;;;;;;;;;;5038721;28;20182;-56
2021/07/28 02:00:27;;;;;;;10.18;4.20;;;;;;;;;;5043011;28;20635;-57
2021/07/28 02:02:52;;;;;;;11.00;4.10;;;;;;;;;;5036748;28;20444;-55
2021/07/28 02:05:18;;;;;;;7.80;3.75;;;;;;;;;;5023481;28;20232;-57
2021/07/28 02:07:43;;;;;;;6.10;3.88;;;;;;;;;;5036694;28;20224;-56
2021/07/28 02:10:09;;;;;;;9.73;4.38;;;;;;;;;;5039780;28;20181;-57
2021/07/28 02:12:34;;;;;;;11.82;4.30;;;;;;;;;;5038291;28;20218;-57
2021/07/28 02:14:59;;;;;;;4.53;4.03;;;;;;;;;;5021737;28;20271;-57
2021/07/28 02:17:25;;;;;;;4.25;3.35;;;;;;;;;;5030895;28;20268;-57
2021/07/28 02:19:50;;;;;;;7.30;4.22;;;;;;;;;;5038688;28;20198;-57
2021/07/28 02:22:15;;;;;;;5.90;3.78;;;;;;;;;;5041608;28;20183;-56
2021/07/28 02:24:41;;;;;;;5.13;4.10;;;;;;;;;;5033441;28;20171;-57
2021/07/28 02:27:06;;;;;;;7.10;3.92;;;;;;;;;;5035425;28;20741;-56
2021/07/28 02:29:33;;;;;;;5.28;4.03;;;;;;;;;;5031575;28;20191;-57
2021/07/28 02:31:58;;;;;;;5.63;3.90;;;;;;;;;;5046266;28;20176;-57
2021/07/28 02:34:24;;;;;;;15.98;4.43;;;;;;;;;;5035253;28;20179;-55
2021/07/28 02:36:49;;;;;;;15.93;4.45;;;;;;;;;;5041583;28;20543;-55
2021/07/28 02:39:14;;;;;;;16.42;4.03;;;;;;;;;;5021793;28;20677;-57
2021/07/28 02:41:39;;;;;;;15.05;4.60;;;;;;;;;;5045300;28;20178;-55
2021/07/28 02:44:04;;;;;;;12.43;4.15;;;;;;;;;;5043745;28;20174;-57
2021/07/28 02:46:30;;;;;;;8.90;4.13;;;;;;;;;;5047023;28;20231;-57
2021/07/28 02:48:55;;;;;;;14.43;4.70;;;;;;;;;;5034797;28;20268;-57
2021/07/28 02:51:20;;;;;;;19.58;4.60;;;;;;;;;;5045675;28;20674;-55
2021/07/28 02:53:45;;;;;;;21.42;4.70;;;;;;;;;;5040367;28;20210;-56
2021/07/28 02:56:10;;;;;;;11.60;4.73;;;;;;;;;;5033634;28;20563;-57
2021/07/28 02:58:35;;;;;;;11.35;4.20;;;;;;;;;;5041542;28;20197;-56
2021/07/28 03:01:01;;;;;;;13.50;5.05;;;;;;;;;;5026855;28;20704;-56
2021/07/28 03:03:26;;;;;;;12.93;4.63;;;;;;;;;;5032490;28;20185;-55
2021/07/28 03:05:51;;;;;;;13.95;4.30;;;;;;;;;;5038373;28;20198;-57
2021/07/28 03:08:17;;;;;;;9.15;4.18;;;;;;;;;;5037050;28;20182;-55
2021/07/28 03:10:42;;;;;;;11.70;4.22;;;;;;;;;;5047665;28;20178;-57
2021/07/28 03:13:07;;;;;;;11.55;4.70;;;;;;;;;;5042936;28;20185;-56
2021/07/28 03:15:32;;;;;;;14.97;5.20;;;;;;;;;;5038387;28;20275;-57
2021/07/28 03:17:57;;;;;;;7.03;4.25;;;;;;;;;;5045309;28;20227;-55
2021/07/28 03:20:23;;;;;;;7.97;4.10;;;;;;;;;;5044482;28;20560;-56
2021/07/28 03:22:48;;;;;;;10.07;4.53;;;;;;;;;;5046510;28;20181;-57
2021/07/28 03:25:13;;;;;;;10.93;4.87;;;;;;;;;;5036162;28;20233;-55
2021/07/28 03:27:38;;;;;;;11.80;4.90;;;;;;;;;;5038568;28;20232;-56
2021/07/28 03:30:04;;;;;;;10.97;4.30;;;;;;;;;;5029067;28;20683;-57
2021/07/28 03:32:29;;;;;;;7.33;3.77;;;;;;;;;;5043767;28;20179;-57
2021/07/28 03:34:54;;;;;;;8.37;4.10;;;;;;;;;;5037362;28;20566;-56
2021/07/28 03:37:19;;;;;;;5.47;3.60;;;;;;;;;;5050945;28;20177;-56
2021/07/28 03:39:45;;;;;;;5.50;3.73;;;;;;;;;;5028027;28;20225;-56
2021/07/28 03:42:10;;;;;;;6.07;3.40;;;;;;;;;;5041219;28;20191;-56
2021/07/28 03:44:35;;;;;;;6.50;4.17;;;;;;;;;;5039980;28;20942;-56
2021/07/28 03:47:00;;;;;;;4.57;4.07;;;;;;;;;;5042537;28;20199;-55
2021/07/28 03:49:26;;;;;;;5.77;3.60;;;;;;;;;;5023955;28;20221;-56
2021/07/28 03:51:51;;;;;;;9.60;4.30;;;;;;;;;;5037235;28;20546;-57
2021/07/28 03:54:16;;;;;;;4.80;3.70;;;;;;;;;;5030985;28;20239;-56
2021/07/28 03:56:42;;;;;;;6.40;3.80;;;;;;;;;;5033883;28;20289;-57
2021/07/28 03:59:07;;;;;;;7.10;3.92;;;;;;;;;;5042436;28;20206;-56
2021/07/28 04:01:32;;;;;;;6.83;3.77;;;;;;;;;;5039240;28;20259;-58
2021/07/28 04:03:57;;;;;;;10.38;3.90;;;;;;;;;;5045178;28;20658;-57
2021/07/28 04:06:22;;;;;;;5.78;3.78;;;;;;;;;;5019537;28;20298;-56
2021/07/28 04:08:48;;;;;;;6.00;3.88;;;;;;;;;;5043325;28;20639;-55
2021/07/28 04:11:13;;;;;;;3.65;3.25;;;;;;;;;;5034630;28;20221;-54
2021/07/28 04:13:38;;;;;;;7.15;4.38;;;;;;;;;;5045013;28;20174;-55
2021/07/28 04:16:03;;;;;;;5.05;3.50;;;;;;;;;;5044055;28;20225;-56
2021/07/28 04:18:28;;;;;;;5.05;3.72;;;;;;;;;;5039876;28;20205;-56
2021/07/28 04:20:54;;;;;;;8.45;3.50;;;;;;;;;;5036316;28;20198;-56
2021/07/28 04:23:19;;;;;;;10.18;4.18;;;;;;;;;;5034221;28;20162;-55
2021/07/28 04:25:44;;;;;;;5.35;3.72;;;;;;;;;;5037859;28;20690;-57
2021/07/28 04:28:09;;;;;;;7.32;4.00;;;;;;;;;;5048439;28;20162;-57
2021/07/28 04:30:34;;;;;;;24.17;4.80;;;;;;;;;;5030868;28;20281;-57
2021/07/28 04:33:00;;;;;;;7.28;3.78;;;;;;;;;;5040862;28;20278;-55
2021/07/28 04:35:25;;;;;;;6.18;3.45;;;;;;;;;;5040546;28;20598;-56
2021/07/28 04:37:50;;;;;;;5.67;3.50;;;;;;;;;;5028263;28;20213;-56
2021/07/28 04:40:16;;;;;;;3.90;3.50;;;;;;;;;;5041246;28;20827;-56
2021/07/28 04:42:41;;;;;;;4.05;3.33;;;;;;;;;;5037936;28;20187;-57
2021/07/28 04:45:06;;;;;;;4.53;3.38;;;;;;;;;;5038766;28;20199;-57
2021/07/28 04:47:31;;;;;;;6.30;3.40;;;;;;;;;;5037253;28;20175;-56
2021/07/28 04:49:57;;;;;;;4.28;3.88;;;;;;;;;;5026887;28;20190;-56
2021/07/28 04:52:25;;;;;;;7.63;4.57;;;;;;;;;;5039022;28;20212;-55
2021/07/28 04:54:53;;;;;;;5.45;3.75;;;;;;;;;;5044406;28;20182;-58
2021/07/28 04:57:18;;;;;;;5.40;3.63;;;;;;;;;;5033996;28;20280;-57
2021/07/28 04:59:44;;;;;;;5.15;3.55;;;;;;;;;;5044176;28;20347;-55
2021/07/28 05:02:09;;;;;;;4.30;3.63;;;;;;;;;;5043573;28;20661;-57
2021/07/28 05:04:34;;;;;;;4.90;3.40;;;;;;;;;;5028522;28;20174;-55
2021/07/28 05:06:59;;;;;;;4.22;3.45;;;;;;;;;;5042942;28;20366;-57
2021/07/28 05:09:25;;;;;;;4.65;3.70;;;;;;;;;;5047009;28;20329;-55
2021/07/28 05:11:50;;;;;;;4.32;3.35;;;;;;;;;;5043368;28;20175;-56
2021/07/28 05:14:15;;;;;;;5.10;3.13;;;;;;;;;;5036187;28;20181;-57
2021/07/28 05:16:40;;;;;;;6.47;3.42;;;;;;;;;;5043245;28;20697;-55
2021/07/28 05:19:05;;;;;;;4.03;3.63;;;;;;;;;;5040572;28;20178;-55
2021/07/28 05:21:30;;;;;;;3.97;3.58;;;;;;;;;;5039853;28;20319;-56
2021/07/28 05:23:55;;;;;;;3.85;3.47;;;;;;;;;;5036404;28;20277;-54
2021/07/28 05:26:21;;;;;;;3.47;3.15;;;;;;;;;;5032461;28;20209;-55
2021/07/28 05:28:46;;;;;;;3.92;3.50;;;;;;;;;;5035369;28;20670;-56
2021/07/28 05:31:11;;;;;;;4.60;3.08;;;;;;;;;;5036726;28;20215;-54
2021/07/28 05:33:36;;;;;;;3.22;2.92;;;;;;;;;;5038878;28;20194;-56
2021/07/28 05:36:01;;;;;;;3.58;3.10;;;;;;;;;;5024832;28;20231;-55
2021/07/28 05:38:27;;;;;;;3.55;3.25;;;;;;;;;;5034695;28;20289;-55
2021/07/28 05:40:55;;;;;;;3.65;3.08;;;;;;;;;;5032024;28;20201;-55
2021/07/28 05:43:20;;;;;;;3.70;3.40;;;;;;;;;;5037003;28;20179;-55
2021/07/28 05:45:48;;;;;;;3.90;3.10;;;;;;;;;;5037946;28;20707;-54
2021/07/28 05:48:14;;;;;;;6.13;3.40;;;;;;;;;;5037456;28;20275;-57
2021/07/28 05:50:39;;;;;;;3.50;3.20;;;;;;;;;;5039074;28;20293;-56
2021/07/28 05:53:04;;;;;;;4.10;3.40;;;;;;;;;;5022060;28;20196;-56
2021/07/28 05:55:29;;;;;;;5.35;3.53;;;;;;;;;;5024353;28;20220;-54
2021/07/28 05:57:56;;;;;;;6.68;4.18;;;;;;;;;;5028873;28;20206;-54
2021/07/28 06:00:21;;;;;;;6.63;3.60;;;;;;;;;;5046623;28;20315;-56
2021/07/28 06:02:47;;;;;;;4.28;3.20;;;;;;;;;;5035136;28;20202;-54
2021/07/28 06:05:12;;;;;;;4.75;3.53;;;;;;;;;;5037444;28;20210;-56
2021/07/28 06:07:37;;;;;;;4.28;3.13;;;;;;;;;;5038385;28;20257;-56
2021/07/28 06:10:02;;;;;;;4.47;3.08;;;;;;;;;;5034903;28;20190;-56
2021/07/28 06:12:28;;;;;;;4.43;3.60;;;;;;;;;;5035962;28;20207;-58
2021/07/28 06:14:53;;;;;;;4.82;3.50;;;;;;;;;;5021040;28;20344;-56
2021/07/28 06:17:19;;;;;;;4.55;3.15;;;;;;;;;;5043496;22;20166;-78
2021/07/28 06:19:44;;;;;;;5.25;3.60;;;;;;;;;;4955142;28;20239;-80
2021/07/28 06:22:10;;;;;;;3.78;3.30;;;;;;;;;;4946066;28;20188;-80
2021/07/28 06:24:35;;;;;;;3.90;3.20;;;;;;;;;;4959830;28;20808;-81
2021/07/28 06:27:00;;;;;;;5.00;3.47;;;;;;;;;;4958168;28;20211;-80
2021/07/28 06:29:26;;;;;;;4.40;4.00;;;;;;;;;;4943820;28;20938;-80
2021/07/28 06:31:54;;;;;;;4.80;3.85;;;;;;;;;;4944974;28;20201;-80
2021/07/28 06:34:19;;;;;;;5.40;3.80;;;;;;;;;;4946376;28;20185;-79
2021/07/28 06:36:44;;;;;;;5.72;3.90;;;;;;;;;;4944544;28;20702;-80
2021/07/28 06:39:09;;;;;;;5.63;3.40;;;;;;;;;;4944590;28;20237;-81
2021/07/28 06:41:35;;;;;;;4.43;3.83;;;;;;;;;;4926712;28;20221;-80
2021/07/28 06:44:00;;;;;;;4.25;3.50;;;;;;;;;;4946701;28;20193;-81
2021/07/28 06:46:25;;;;;;;3.83;3.38;;;;;;;;;;4943507;28;20457;-80
2021/07/28 06:48:50;;;;;;;6.87;4.07;;;;;;;;;;4939828;28;20276;-80
2021/07/28 06:51:15;;;;;;;4.57;3.38;;;;;;;;;;4929949;28;20468;-80
2021/07/28 06:53:40;;;;;;;4.57;3.47;;;;;;;;;;4945199;28;20193;-80
2021/07/28 06:56:06;;;;;;;7.03;3.53;;;;;;;;;;4941357;28;20232;-80
2021/07/28 06:58:31;;;;;;;4.13;3.58;;;;;;;;;;4937849;28;21071;-81
2021/07/28 07:00:58;;;;;;;4.70;3.10;;;;;;;;;;4940325;28;20219;-80
2021/07/28 07:03:23;;;;;;;7.55;2.85;;;;;;;;;;4944267;28;20992;-80
2021/07/28 07:05:49;;;;;;;9.40;2.83;;;;;;;;;;4944675;28;20171;-78
2021/07/28 07:08:14;;;;;;;4.50;3.40;;;;;;;;;;4944364;28;20323;-80
2021/07/28 07:10:40;;;;;;;3.65;2.95;;;;;;;;;;4945430;28;20259;-79
2021/07/28 07:13:05;;;;;;;3.50;3.20;;;;;;;;;;4945410;28;20886;-78
2021/07/28 07:15:30;;;;;;;4.28;3.10;;;;;;;;;;4943423;28;20217;-80
2021/07/28 07:17:55;;;;;;;3.70;3.30;;;;;;;;;;4950627;28;20225;-80
2021/07/28 07:20:21;;;;;;;3.00;2.70;;;;;;;;;;4950983;28;20197;-79
2021/07/28 07:22:46;;;;;;;4.77;2.80;;;;;;;;;;4950453;28;20437;-79
2021/07/28 07:25:11;;;;;;;3.75;3.10;;;;;;;;;;4957853;28;20492;-80
2021/07/28 07:27:40;;;;;;;4.75;3.30;;;;;;;;;;4951169;28;20201;-78
2021/07/28 07:30:05;;;;;;;4.47;2.97;;;;;;;;;;4931082;28;20189;-79
2021/07/28 07:32:30;;;;;;;4.03;3.63;;;;;;;;;;4952177;28;20181;-81
2021/07/28 07:34:57;;;;;;;8.40;3.35;;;;;;;;;;4949795;28;20269;-80
2021/07/28 07:37:23;;;;;;;4.30;3.38;;;;;;;;;;4944105;28;20209;-79
2021/07/28 07:39:48;;;;;;;3.63;3.22;;;;;;;;;;4956306;28;20212;-80
2021/07/28 07:42:13;;;;;;;4.23;3.83;;;;;;;;;;4936897;28;20645;-79
2021/07/28 07:44:38;;;;;;;15.97;4.17;;;;;;;;;;4953366;28;20576;-80
2021/07/28 07:47:03;;;;;;;5.90;3.65;;;;;;;;;;4951657;28;20417;-79
2021/07/28 07:49:29;;;;;;;5.60;3.67;;;;;;;;;;4954036;28;20208;-77
2021/07/28 07:51:54;;;;;;;5.97;3.90;;;;;;;;;;4949486;28;20191;-83
2021/07/28 07:54:19;;;;;;;5.80;4.03;;;;;;;;;;4948886;28;20463;-79
2021/07/28 07:56:44;;;;;;;5.03;3.60;;;;;;;;;;4960119;28;20248;-79
2021/07/28 07:59:09;;;;;;;4.07;3.65;;;;;;;;;;4947072;28;20443;-79
2021/07/28 08:01:35;;;;;;;3.93;3.63;;;;;;;;;;4953890;28;20607;-78
2021/07/28 08:04:00;;;;;;;5.97;4.55;;;;;;;;;;4945490;28;20179;-78
2021/07/28 08:06:26;;;;;;;6.43;3.80;;;;;;;;;;4956199;28;20189;-78
2021/07/28 08:08:51;;;;;;;6.53;4.38;;;;;;;;;;4950839;28;20634;-78
2021/07/28 08:11:16;;;;;;;4.57;4.17;;;;;;;;;;4947124;28;20249;-80
2021/07/28 08:13:42;;;;;;;5.30;4.40;;;;;;;;;;4948332;28;20652;-77
2021/07/28 08:16:11;;;;;;;4.55;4.15;;;;;;;;;;4945726;28;20190;-76
2021/07/28 08:18:36;;;;;;;7.15;4.45;;;;;;;;;;4949120;28;20256;-75
2021/07/28 08:21:02;;;;;;;6.88;3.58;;;;;;;;;;4940941;28;20774;-76
2021/07/28 08:23:27;;;;;;;4.32;3.72;;;;;;;;;;4940503;28;20240;-76
2021/07/28 08:25:52;;;;;;;4.83;4.30;;;;;;;;;;4944341;28;20173;-75
2021/07/28 08:28:17;;;;;;;4.23;3.57;;;;;;;;;;4923723;28;20471;-76
2021/07/28 08:30:42;;;;;;;4.35;3.95;;;;;;;;;;4941102;28;20195;-76
2021/07/28 08:33:07;;;;;;;4.88;4.32;;;;;;;;;;4945946;28;20705;-77
2021/07/28 08:35:33;;;;;;;7.80;4.53;;;;;;;;;;4944591;28;20855;-79
2021/07/28 08:37:58;;;;;;;5.80;4.37;;;;;;;;;;4946096;28;20213;-75
2021/07/28 08:40:23;;;;;;;3.93;3.63;;;;;;;;;;4944349;28;20476;-80
2021/07/28 08:42:49;;;;;;;4.00;3.60;;;;;;;;;;4949636;28;20189;-77
2021/07/28 08:45:16;;;;;;;4.68;4.20;;;;;;;;;;4947084;28;20182;-79
2021/07/28 08:47:42;;;;;;;7.70;4.30;;;;;;;;;;4944821;28;20209;-77
2021/07/28 08:50:08;;;;;;;6.55;3.95;;;;;;;;;;4947164;28;20225;-76
2021/07/28 08:52:34;;;;;;;6.10;4.38;;;;;;;;;;4936376;28;20205;-78
2021/07/28 08:54:59;;;;;;;6.45;4.07;;;;;;;;;;4951645;28;20182;-78
2021/07/28 08:57:25;;;;;;;4.28;3.88;;;;;;;;;;4953736;28;20209;-79
2021/07/28 08:59:55;;;;;;;5.35;3.90;;;;;;;;;;4953752;28;20216;-81
2021/07/28 09:02:20;;;;;;;5.45;3.70;;;;;;;;;;4950746;28;20272;-79
2021/07/28 09:04:45;;;;;;;4.38;3.97;;;;;;;;;;4955068;28;20317;-79
2021/07/28 09:07:14;;;;;;;4.10;3.80;;;;;;;;;;4956933;28;20189;-79
2021/07/28 09:09:50;;;;;;;4.20;3.85;;;;;;;;;;4949873;28;20207;-79
2021/07/28 09:12:15;;;;;;;4.93;3.67;;;;;;;;;;4957197;28;20676;-77
2021/07/28 09:14:49;;;;;;;4.20;3.80;;;;;;;;;;4955785;28;20197;-79
2021/07/28 09:17:17;;;;;;;8.90;4.38;;;;;;;;;;4950262;28;20181;-79
2021/07/28 09:19:43;;;;;;;6.03;3.85;;;;;;;;;;4953356;28;20201;-79
2021/07/28 09:22:09;;;;;;;4.30;3.90;;;;;;;;;;4948813;28;20193;-81
2021/07/28 09:24:34;;;;;;;7.97;4.20;;;;;;;;;;4958001;28;20193;-80
2021/07/28 09:27:00;;;;;;;4.15;3.80;;;;;;;;;;4951653;28;20268;-79
2021/07/28 09:29:26;;;;;;;6.93;4.00;;;;;;;;;;4953045;28;20197;-79
2021/07/28 09:32:00;;;;;;;4.80;4.00;;;;;;;;;;4954738;28;20177;-77
2021/07/28 09:34:25;;;;;;;4.45;3.92;;;;;;;;;;4951885;28;20240;-79
2021/07/28 09:36:52;;;;;;;3.57;3.07;;;;;;;;;;4954710;28;20705;-79
2021/07/28 09:39:34;;;;;;;6.82;3.92;;;;;;;;;;4948122;28;20449;-79
2021/07/28 09:42:00;;;;;;;4.38;3.97;;;;;;;;;;4951913;28;20185;-79
2021/07/28 09:44:26;;;;;;;4.97;4.35;;;;;;;;;;4950429;28;20742;-78
2021/07/28 09:47:10;;;;;;;6.38;3.30;;;;;;;;;;4957159;28;20177;-78
2021/07/28 09:49:36;;;;;;;4.15;3.78;;;;;;;;;;4952166;28;20601;-79
2021/07/28 09:52:22;;;;;;;4.28;3.88;;;;;;;;;;4952284;28;20182;-80
2021/07/28 09:54:48;;;;;;;4.97;4.05;;;;;;;;;;4957626;28;20276;-79
2021/07/28 09:57:14;;;;;;;6.22;3.97;;;;;;;;;;4950252;28;20190;-78
2021/07/28 09:59:42;;;;;;;4.53;4.00;;;;;;;;;;4949160;28;20213;-78
2021/07/28 10:02:08;;;;;;;4.55;4.15;;;;;;;;;;4949400;28;20178;-80
2021/07/28 10:04:33;;;;;;;6.13;4.63;;;;;;;;;;4935310;28;20269;-79
2021/07/28 10:07:00;;;;;;;6.57;3.73;;;;;;;;;;4950270;28;20236;-79
2021/07/28 10:09:37;;;;;;;4.53;3.88;;;;;;;;;;4947665;28;20449;-80
2021/07/28 10:12:02;;;;;;;3.28;2.45;;;;;;;;;;4951732;28;20215;-79
2021/07/28 10:14:27;;;;;;;4.65;3.50;;;;;;;;;;4952946;28;20193;-79
2021/07/28 10:16:53;;;;;;;6.15;2.80;;;;;;;;;;4953051;28;20247;-79
2021/07/28 10:19:18;;;;;;;6.63;3.50;;;;;;;;;;4947904;28;20292;-80
2021/07/28 10:21:44;;;;;;;5.47;3.70;;;;;;;;;;4954560;28;20851;-76
2021/07/28 10:24:09;;;;;;;3.83;3.20;;;;;;;;;;4951979;28;20192;-78
2021/07/28 10:26:37;;;;;;;3.92;3.50;;;;;;;;;;4951188;28;20268;-77
2021/07/28 10:29:02;;;;;;;3.72;3.00;;;;;;;;;;4950562;28;20205;-79
2021/07/28 10:31:42;;;;;;;4.95;3.63;;;;;;;;;;4948580;28;20203;-80
2021/07/28 10:34:19;;;;;;;4.20;3.70;;;;;;;;;;4951451;28;20209;-80
2021/07/28 10:36:45;;;;;;;2.60;2.40;;;;;;;;;;4947688;28;20186;-79
2021/07/28 10:39:10;;;;;;;3.78;3.17;;;;;;;;;;4950384;28;20290;-79
2021/07/28 10:41:39;;;;;;;8.57;3.15;;;;;;;;;;4951670;28;20217;-78
2021/07/28 10:44:15;;;;;;;5.45;3.08;;;;;;;;;;4953561;28;20186;-80
2021/07/28 10:46:52;;;;;;;3.63;2.97;;;;;;;;;;4950487;28;20251;-80
2021/07/28 10:49:33;;;;;;;4.60;3.25;;;;;;;;;;4951348;28;20200;-79
2021/07/28 10:51:58;;;;;;;3.63;3.15;;;;;;;;;;4948186;28;20251;-80
2021/07/28 10:54:42;;;;;;;3.97;2.92;;;;;;;;;;4947519;28;20224;-79
2021/07/28 10:57:07;;;;;;;4.60;3.20;;;;;;;;;;4938832;29;20288;-75
2021/07/28 10:59:38;;;;;;;4.00;3.00;;;;;;;;;;4951008;28;20670;-75
2021/07/28 11:02:04;;;;;;;3.28;2.75;;;;;;;;;;4950521;28;20276;-76
2021/07/28 11:04:29;;;;;;;4.40;3.90;;;;;;;;;;4952249;28;20269;-77
2021/07/28 11:06:54;;;;;;;2.83;2.50;;;;;;;;;;4946227;28;20427;-74
2021/07/28 11:09:19;;;;;;;2.67;2.47;;;;;;;;;;4948695;28;20448;-74
2021/07/28 11:11:46;;;;;;;3.30;3.00;;;;;;;;;;4945400;28;21033;-74
2021/07/28 11:14:11;;;;;;;3.88;3.47;;;;;;;;;;4943187;28;20560;-74
2021/07/28 11:16:39;;;;;;;8.15;3.10;;;;;;;;;;4947218;28;20268;-75
2021/07/28 11:19:04;;;;;;;4.50;2.70;;;;;;;;;;4942328;28;20217;-75
2021/07/28 11:21:29;;;;;;;5.17;3.37;;;;;;;;;;4944379;28;20272;-77
2021/07/28 11:23:56;;;;;;;3.60;3.30;;;;;;;;;;4943795;28;20436;-77
2021/07/28 11:26:22;;;;;;;3.70;2.92;;;;;;;;;;4943914;28;20220;-79
2021/07/28 11:28:48;;;;;;;3.90;3.50;;;;;;;;;;4944815;28;20305;-79
2021/07/28 11:31:14;;;;;;;4.85;3.72;;;;;;;;;;4942452;28;20185;-79
2021/07/28 11:33:39;;;;;;;4.00;3.22;;;;;;;;;;4944057;28;20193;-78
2021/07/28 11:36:05;;;;;;;4.68;3.55;;;;;;;;;;4944121;28;20186;-75
2021/07/28 11:38:35;;;;;;;3.25;2.95;;;;;;;;;;4943471;28;20233;-75
2021/07/28 11:41:01;;;;;;;3.17;2.88;;;;;;;;;;4942724;28;20228;-77
2021/07/28 11:43:30;;;;;;;3.80;3.40;;;;;;;;;;4944990;28;20249;-81
2021/07/28 11:46:01;;;;;;;2.95;2.65;;;;;;;;;;4941463;28;20219;-80
2021/07/28 11:48:27;;;;;;;5.93;3.53;;;;;;;;;;4941088;28;21067;-76
2021/07/28 11:50:52;;;;;;;4.28;3.40;;;;;;;;;;4943961;28;20177;-76
2021/07/28 11:53:22;;;;;;;5.03;3.50;;;;;;;;;;4942175;28;20194;-79
2021/07/28 11:55:47;;;;;;;3.30;3.00;;;;;;;;;;4942926;28;20428;-76
2021/07/28 11:58:12;;;;;;;4.38;2.92;;;;;;;;;;4935910;28;20217;-76
2021/07/28 12:00:39;;;;;;;2.10;1.57;;;;;;;;;;4943669;28;20271;-75
2021/07/28 12:03:21;;;;;;;5.32;2.85;;;;;;;;;;4934601;29;20491;-75
2021/07/28 12:06:05;;;;;;;3.88;2.67;;;;;;;;;;4947414;28;20280;-76
2021/07/28 12:08:32;;;;;;;2.88;2.20;;;;;;;;;;4938203;28;20220;-75
2021/07/28 12:11:15;;;;;;;2.75;2.55;;;;;;;;;;4954946;28;20197;-75
2021/07/28 12:13:47;;;;;;;2.60;2.17;;;;;;;;;;4948159;28;20206;-77
2021/07/28 12:16:13;;;;;;;6.60;1.92;;;;;;;;;;4936320;28;20298;-75
2021/07/28 12:18:42;;;;;;;3.75;2.13;;;;;;;;;;4955272;28;20705;-75
2021/07/28 12:21:07;;;;;;;4.45;2.90;;;;;;;;;;4954630;28;20225;-76
2021/07/28 12:23:32;;;;;;;3.55;2.58;;;;;;;;;;4952042;28;20198;-76
2021/07/28 12:25:57;;;;;;;3.95;3.10;;;;;;;;;;4956679;28;20263;-74
2021/07/28 12:28:23;;;;;;;3.93;2.57;;;;;;;;;;4950384;28;20201;-75
2021/07/28 12:30:56;;;;;;;3.75;2.55;;;;;;;;;;4943013;29;20420;-76
2021/07/28 12:33:24;;;;;;;2.85;2.63;;;;;;;;;;4952381;28;20786;-76
2021/07/28 12:35:54;;;;;;;2.78;2.53;;;;;;;;;;4952560;28;20225;-77
2021/07/28 12:38:23;;;;;;;6.38;2.70;;;;;;;;;;4948039;28;20213;-76
2021/07/28 12:40:49;;;;;;;3.65;2.97;;;;;;;;;;4954652;28;20756;-76
2021/07/28 12:43:14;;;;;;;3.60;2.90;;;;;;;;;;4952873;28;21488;-75
2021/07/28 12:45:39;;;;;;;5.75;3.00;;;;;;;;;;4954945;28;20280;-76
2021/07/28 12:48:05;;;;;;;3.17;2.88;;;;;;;;;;4954322;28;20209;-76
2021/07/28 12:50:30;;;;;;;3.85;2.38;;;;;;;;;;4948854;28;20212;-74
2021/07/28 12:52:58;;;;;;;4.88;3.20;;;;;;;;;;4953845;28;20215;-74
2021/07/28 12:55:23;;;;;;;3.20;2.70;;;;;;;;;;4954025;28;20197;-76
2021/07/28 12:57:49;;;;;;;18.80;3.83;;;;;;;;;;4954458;28;20753;-75
2021/07/28 13:00:14;;;;;;;3.60;2.90;;;;;;;;;;4937148;28;20694;-77
2021/07/28 13:02:40;;;;;;;6.47;2.92;;;;;;;;;;4950479;28;20209;-75
2021/07/28 13:05:05;;;;;;;4.93;2.90;;;;;;;;;;4954909;28;20170;-75
2021/07/28 13:07:46;;;;;;;2.63;2.40;;;;;;;;;;4951777;28;20289;-76
2021/07/28 13:10:11;;;;;;;9.35;4.22;;;;;;;;;;4937587;29;20539;-74
2021/07/28 13:12:37;;;;;;;2.30;2.10;;;;;;;;;;4956141;28;20272;-75
2021/07/28 13:15:02;;;;;;;3.58;2.58;;;;;;;;;;4956319;28;20443;-76
2021/07/28 13:17:27;;;;;;;5.25;2.50;;;;;;;;;;4952895;28;20237;-76
2021/07/28 13:19:53;;;;;;;4.68;2.90;;;;;;;;;;4950215;28;20697;-76
2021/07/28 13:24:53;;;;;;;3.95;2.72;;;;;;;;;;5001184;28;20284;-77
2021/07/28 13:27:18;;;;;;;2.78;2.58;;;;;;;;;;4997824;28;20191;-83
2021/07/28 13:29:43;;;;;;;5.70;2.73;;;;;;;;;;5007819;28;20598;-83
2021/07/28 13:32:08;;;;;;;4.25;2.88;;;;;;;;;;5009450;28;20434;-84
2021/07/28 13:34:34;;;;;;;7.00;3.05;;;;;;;;;;5011056;28;20698;-83
2021/07/28 13:37:02;;;;;;;3.07;2.77;;;;;;;;;;5011478;28;20658;-87
2021/07/28 13:39:27;;;;;;;3.03;2.50;;;;;;;;;;5010526;28;20454;-84
2021/07/28 13:41:52;;;;;;;4.50;2.70;;;;;;;;;;5012896;28;20212;-85
2021/07/28 13:44:18;;;;;;;4.72;2.47;;;;;;;;;;5009618;28;20686;-83
2021/07/28 13:46:43;;;;;;;3.17;2.05;;;;;;;;;;5009678;28;20175;-80
2021/07/28 13:49:09;;;;;;;4.03;3.23;;;;;;;;;;5009294;28;20187;-80
2021/07/28 13:51:34;;;;;;;5.75;3.20;;;;;;;;;;5010549;28;20497;-83
2021/07/28 13:53:59;;;;;;;4.85;2.88;;;;;;;;;;5009965;28;20341;-77
2021/07/28 13:56:25;;;;;;;3.65;2.47;;;;;;;;;;5008413;28;20634;-86
2021/07/28 13:58:50;;;;;;;10.18;3.40;;;;;;;;;;5010051;28;20194;-73
2021/07/28 14:01:15;;;;;;;4.73;3.00;;;;;;;;;;5011056;28;20191;-81
2021/07/28 14:03:40;;;;;;;7.13;3.25;;;;;;;;;;5008814;28;21030;-83
2021/07/28 14:06:05;;;;;;;7.25;2.78;;;;;;;;;;5007322;28;20179;-83
2021/07/28 14:08:31;;;;;;;9.63;3.30;;;;;;;;;;5007195;28;20180;-78
2021/07/28 14:10:56;;;;;;;9.70;3.13;;;;;;;;;;5022862;28;20193;-71
2021/07/28 14:13:22;;;;;;;5.03;2.50;;;;;;;;;;5008023;28;20207;-76
2021/07/28 14:15:47;;;;;;;5.95;2.80;;;;;;;;;;5009659;28;20773;-85
2021/07/28 14:18:12;;;;;;;5.87;2.50;;;;;;;;;;5009824;28;20183;-86
2021/07/28 14:20:38;;;;;;;2.88;2.42;;;;;;;;;;5006839;28;20461;-79
2021/07/28 14:23:03;;;;;;;5.70;2.95;;;;;;;;;;5007366;28;20683;-77
2021/07/28 14:25:29;;;;;;;5.22;2.90;;;;;;;;;;5009878;28;20202;-80
2021/07/28 14:27:54;;;;;;;3.65;2.40;;;;;;;;;;5009132;28;20179;-82
2021/07/28 14:30:19;;;;;;;3.20;2.45;;;;;;;;;;5009023;28;20183;-78
2021/07/28 14:32:45;;;;;;;7.83;2.60;;;;;;;;;;4999681;28;20210;-81
2021/07/28 14:35:10;;;;;;;4.15;2.63;;;;;;;;;;5010549;28;20429;-81
2021/07/28 14:37:35;;;;;;;8.77;3.10;;;;;;;;;;5023539;28;20674;-79
2021/07/28 14:40:01;;;;;;;2.72;2.40;;;;;;;;;;5008281;28;20203;-80
2021/07/28 14:42:26;;;;;;;5.57;2.63;;;;;;;;;;5010145;28;20183;-81